createdAt,value
2019-05-15T00:00:09.009Z,76.96
2019-05-15T00:02:38.860Z,77.19
2019-05-15T00:05:08.966Z,77.51
2019-05-15T00:07:39.271Z,77.31
2019-05-15T00:10:08.735Z,77.17
2019-05-15T00:12:39.446Z,76.91
2019-05-15T00:15:09.223Z,77.14
2019-05-15T00:17:39.443Z,77.21
2019-05-15T00:20:09.904Z,76.59
2019-05-15T00:22:39.054Z,77.04
2019-05-15T00:25:09.263Z,77.54
2019-05-15T00:27:38.600Z,77.24
2019-05-15T00:30:08.889Z,76.40
2019-05-15T00:32:39.396Z,77.44
2019-05-15T00:35:09.378Z,77.10
2019-05-15T00:37:38.931Z,76.57
2019-05-15T00:40:08.825Z,76.97
2019-05-15T00:42:38.333Z,77.63
2019-05-15T00:45:09.535Z,77.92
2019-05-15T00:47:39.692Z,77.90
2019-05-15T00:50:09.340Z,77.52
2019-05-15T00:52:39.131Z,78.19
2019-05-15T00:55:11.286Z,78.69
2019-05-15T00:57:39.713Z,77.82
2019-05-15T01:00:09.570Z,77.95
2019-05-15T01:02:38.799Z,78.71
2019-05-15T01:05:08.365Z,78.40
2019-05-15T01:07:39.194Z,78.31
2019-05-15T01:10:09.893Z,78.60
2019-05-15T01:12:38.224Z,79.49
2019-05-15T01:15:09.254Z,79.60
2019-05-15T01:17:39.129Z,79.53
2019-05-15T01:20:08.616Z,79.43
2019-05-15T01:22:39.335Z,79.68
2019-05-15T01:25:08.656Z,78.92
2019-05-15T01:27:38.719Z,78.47
2019-05-15T01:30:09.010Z,78.27
2019-05-15T01:32:39.488Z,77.18
2019-05-15T01:35:09.519Z,76.62
2019-05-15T01:37:39.078Z,76.08
2019-05-15T01:40:08.798Z,74.85
2019-05-15T01:42:38.633Z,74.73
2019-05-15T01:45:08.777Z,74.01
2019-05-15T01:47:38.837Z,73.29
2019-05-15T01:50:09.227Z,73.75
2019-05-15T01:52:39.058Z,73.44
2019-05-15T01:55:09.119Z,73.93
2019-05-15T01:57:38.490Z,74.53
2019-05-15T02:00:08.873Z,74.33
2019-05-15T02:02:38.919Z,74.18
2019-05-15T02:05:09.070Z,74.82
2019-05-15T02:07:39.141Z,75.03
2019-05-15T02:10:09.372Z,76.13
2019-05-15T02:12:38.917Z,76.28
2019-05-15T02:15:08.587Z,76.75
2019-05-15T02:17:39.166Z,77.55
2019-05-15T02:20:08.851Z,77.74
2019-05-15T02:22:41.887Z,77.79
2019-05-15T02:25:08.909Z,78.36
2019-05-15T02:27:39.252Z,78.07
2019-05-15T02:30:21.438Z,78.34
2019-05-15T02:32:39.708Z,78.04
2019-05-15T02:35:10.101Z,78.36
2019-05-15T02:37:40.780Z,77.90
2019-05-15T02:40:10.660Z,78.41
2019-05-15T02:42:40.196Z,78.10
2019-05-15T02:45:10.226Z,78.92
2019-05-15T02:47:39.748Z,77.17
2019-05-15T02:50:10.792Z,77.33
2019-05-15T02:52:44.436Z,75.64
2019-05-15T02:55:09.867Z,77.30
2019-05-15T02:57:39.421Z,77.30
2019-05-15T03:00:10.711Z,78.07
2019-05-15T03:02:41.372Z,78.25
2019-05-15T03:05:09.755Z,78.51
2019-05-15T03:07:40.218Z,78.80
2019-05-15T03:10:09.565Z,78.51
2019-05-15T03:12:40.549Z,79.52
2019-05-15T03:15:09.636Z,79.71
2019-05-15T03:17:40.442Z,78.41
2019-05-15T03:20:10.677Z,79.78
2019-05-15T03:22:40.526Z,79.67
2019-05-15T03:25:10.593Z,79.49
2019-05-15T03:27:40.179Z,79.85
2019-05-15T03:30:13.109Z,79.72
2019-05-15T03:32:51.984Z,80.10
2019-05-15T03:35:14.386Z,80.00
2019-05-15T03:37:40.909Z,80.29
2019-05-15T03:40:10.696Z,80.43
2019-05-15T03:42:39.929Z,79.90
2019-05-15T03:45:10.328Z,80.28
2019-05-15T03:47:40.112Z,79.25
2019-05-15T03:50:10.582Z,79.21
2019-05-15T03:52:39.861Z,78.48
2019-05-15T03:55:10.792Z,78.27
2019-05-15T03:57:40.567Z,77.47
2019-05-15T04:00:10.381Z,75.52
2019-05-15T04:02:39.681Z,76.38
2019-05-15T04:05:12.000Z,75.56
2019-05-15T04:07:39.793Z,76.82
2019-05-15T04:10:10.167Z,76.45
2019-05-15T04:12:40.469Z,77.05
2019-05-15T04:15:10.343Z,76.94
2019-05-15T04:17:40.513Z,77.44
2019-05-15T04:20:10.354Z,77.53
2019-05-15T04:22:40.424Z,77.81
2019-05-15T04:25:10.256Z,78.06
2019-05-15T04:27:40.971Z,77.12
2019-05-15T04:30:10.571Z,76.84
2019-05-15T04:32:40.430Z,76.58
2019-05-15T04:35:09.546Z,75.75
2019-05-15T04:37:40.713Z,74.99
2019-05-15T04:40:09.450Z,74.66
2019-05-15T04:42:39.790Z,74.85
2019-05-15T04:45:09.971Z,74.98
2019-05-15T04:47:39.629Z,74.58
2019-05-15T04:50:09.202Z,74.12
2019-05-15T04:52:39.366Z,73.62
2019-05-15T04:55:10.139Z,73.89
2019-05-15T04:57:40.139Z,74.06
2019-05-15T05:00:09.870Z,73.95
2019-05-15T05:02:39.929Z,74.33
2019-05-15T05:05:10.223Z,74.03
2019-05-15T05:07:39.663Z,74.00
2019-05-15T05:10:09.704Z,74.03
2019-05-15T05:12:41.546Z,73.90
2019-05-15T05:15:08.982Z,73.83
2019-05-15T05:17:39.110Z,74.38
2019-05-15T05:20:08.384Z,74.55
2019-05-15T05:22:39.264Z,73.81
2019-05-15T05:25:08.115Z,73.90
2019-05-15T05:27:38.299Z,72.62
2019-05-15T05:30:08.430Z,71.68
2019-05-15T05:32:39.136Z,74.12
2019-05-15T05:35:08.612Z,73.73
2019-05-15T05:37:38.897Z,73.74
2019-05-15T05:40:09.749Z,74.16
2019-05-15T05:42:39.170Z,74.37
2019-05-15T05:45:09.336Z,74.97
2019-05-15T05:47:38.371Z,73.21
2019-05-15T05:50:08.128Z,72.75
2019-05-15T05:52:38.870Z,71.51
2019-05-15T05:55:08.982Z,70.72
2019-05-15T05:57:38.287Z,70.98
2019-05-15T06:00:09.200Z,69.88
2019-05-15T06:02:46.876Z,70.25
2019-05-15T06:05:08.175Z,69.14
2019-05-15T06:07:38.754Z,69.41
2019-05-15T06:10:09.038Z,69.25
2019-05-15T06:12:38.956Z,68.67
2019-05-15T06:15:08.928Z,66.56
2019-05-15T06:17:39.338Z,65.52
2019-05-15T06:20:08.229Z,65.78
2019-05-15T06:22:38.819Z,66.13
2019-05-15T06:25:11.417Z,64.22
2019-05-15T06:27:39.014Z,62.63
2019-05-15T06:30:08.942Z,62.22
2019-05-15T06:32:39.736Z,61.54
2019-05-15T06:35:09.410Z,60.15
2019-05-15T06:37:39.550Z,58.75
2019-05-15T06:40:08.554Z,59.36
2019-05-15T06:42:39.502Z,58.69
2019-05-15T06:45:08.392Z,57.57
2019-05-15T06:47:39.454Z,57.95
2019-05-15T06:50:09.988Z,58.47
2019-05-15T06:52:38.400Z,57.21
2019-05-15T06:55:09.151Z,56.36
2019-05-15T06:57:39.673Z,57.13
2019-05-15T07:00:08.741Z,55.37
2019-05-15T07:02:38.296Z,55.00
2019-05-15T07:05:07.983Z,53.06
2019-05-15T07:07:38.723Z,53.04
2019-05-15T07:10:08.993Z,52.79
2019-05-15T07:12:39.070Z,53.18
2019-05-15T07:15:09.151Z,52.07
2019-05-15T07:17:39.229Z,52.00
2019-05-15T07:20:09.337Z,51.41
2019-05-15T07:22:39.255Z,51.05
2019-05-15T07:25:08.905Z,52.26
2019-05-15T07:27:38.958Z,52.17
2019-05-15T07:30:11.876Z,50.64
2019-05-15T07:32:39.886Z,49.71
2019-05-15T07:35:09.934Z,50.45
2019-05-15T07:37:38.958Z,50.44
2019-05-15T07:40:09.546Z,49.87
2019-05-15T07:42:38.822Z,49.34
2019-05-15T07:45:09.014Z,49.73
2019-05-15T07:47:38.641Z,49.23
2019-05-15T07:50:10.217Z,49.14
2019-05-15T07:52:40.084Z,49.74
2019-05-15T07:55:09.029Z,49.05
2019-05-15T07:57:39.292Z,49.21
2019-05-15T08:00:13.750Z,48.88
2019-05-15T08:02:42.336Z,48.63
2019-05-15T08:05:11.562Z,48.81
2019-05-15T08:07:40.117Z,48.73
2019-05-15T08:10:09.282Z,47.18
2019-05-15T08:12:39.222Z,47.30
2019-05-15T08:15:13.067Z,45.77
2019-05-15T08:18:00.085Z,45.64
2019-05-15T08:20:13.863Z,46.10
2019-05-15T08:22:45.770Z,44.61
2019-05-15T08:25:30.098Z,44.18
2019-05-15T08:27:43.791Z,43.32
2019-05-15T08:30:14.363Z,43.35
2019-05-15T08:32:42.890Z,44.21
2019-05-15T08:35:12.794Z,42.57
2019-05-15T08:37:41.473Z,43.62
2019-05-15T08:40:12.670Z,42.31
2019-05-15T08:42:42.047Z,43.21
2019-05-15T08:45:11.381Z,42.13
2019-05-15T08:47:39.846Z,43.05
2019-05-15T08:50:09.790Z,41.12
2019-05-15T08:52:39.286Z,41.37
2019-05-15T08:55:08.808Z,40.89
2019-05-15T09:00:32.877Z,43.02
2019-05-15T09:03:01.447Z,42.74
2019-05-15T09:05:29.847Z,43.81
2019-05-15T09:07:58.384Z,43.70
2019-05-15T09:10:28.787Z,43.26
2019-05-15T09:12:58.643Z,41.64
2019-05-15T09:15:29.319Z,43.76
2019-05-15T09:18:09.192Z,41.32
2019-05-15T09:20:28.742Z,41.77
2019-05-15T09:22:58.227Z,42.33
2019-05-15T09:25:28.750Z,42.17
2019-05-15T09:27:57.907Z,40.52
2019-05-15T09:30:28.628Z,41.40
2019-05-15T09:32:58.831Z,42.04
2019-05-15T09:35:27.829Z,40.02
2019-05-15T09:37:58.335Z,39.93
2019-05-15T09:40:41.848Z,40.87
2019-05-15T09:42:57.859Z,40.33
2019-05-15T09:45:28.534Z,42.43
2019-05-15T09:47:58.937Z,43.71
2019-05-15T09:50:28.209Z,41.60
2019-05-15T09:52:58.827Z,43.31
2019-05-15T09:55:28.545Z,43.10
2019-05-15T09:57:59.039Z,43.89
2019-05-15T10:00:29.287Z,43.05
2019-05-15T10:02:58.080Z,44.29
2019-05-15T10:05:28.104Z,42.04
2019-05-15T10:07:56.762Z,42.89
2019-05-15T10:10:25.229Z,43.06
2019-05-15T10:12:53.642Z,43.38
2019-05-15T10:15:22.195Z,42.46
2019-05-15T10:17:51.316Z,42.71
2019-05-15T10:20:20.155Z,42.55
2019-05-15T10:22:48.611Z,42.78
2019-05-15T10:25:19.031Z,44.00
2019-05-15T10:27:48.775Z,44.54
2019-05-15T10:30:18.856Z,43.51
2019-05-15T10:32:48.729Z,43.65
2019-05-15T10:35:25.469Z,43.60
2019-05-15T10:37:48.828Z,42.92
2019-05-15T10:40:20.393Z,46.18
2019-05-15T10:42:49.593Z,44.83
2019-05-15T10:45:19.221Z,43.65
2019-05-15T10:47:49.657Z,44.21
2019-05-15T10:50:19.246Z,44.62
2019-05-15T10:52:48.955Z,45.19
2019-05-15T10:55:18.931Z,44.38
2019-05-15T10:57:47.763Z,45.46
2019-05-15T11:00:19.245Z,46.02
2019-05-15T11:02:48.960Z,45.42
2019-05-15T11:05:18.009Z,45.84
2019-05-15T11:07:48.211Z,45.27
2019-05-15T11:10:18.639Z,44.84
2019-05-15T11:12:49.838Z,44.90
2019-05-15T11:15:18.681Z,44.25
2019-05-15T11:17:49.195Z,44.08
2019-05-15T11:20:19.351Z,42.21
2019-05-15T11:22:50.070Z,43.46
2019-05-15T11:25:18.653Z,43.84
2019-05-15T11:27:48.429Z,42.10
2019-05-15T11:30:19.217Z,42.94
2019-05-15T11:32:48.628Z,43.33
2019-05-15T11:35:18.580Z,45.33
2019-05-15T11:37:56.045Z,41.18
2019-05-15T11:40:18.880Z,41.81
2019-05-15T11:42:48.792Z,42.18
2019-05-15T11:45:18.658Z,42.19
2019-05-15T11:47:48.342Z,42.19
2019-05-15T11:50:20.626Z,42.44
2019-05-15T11:52:47.674Z,40.98
2019-05-15T11:55:17.216Z,43.75
2019-05-15T11:57:47.710Z,41.46
2019-05-15T12:00:26.160Z,42.92
2019-05-15T12:02:47.420Z,40.49
2019-05-15T12:05:18.257Z,39.04
2019-05-15T12:07:47.850Z,38.03
2019-05-15T12:10:18.436Z,38.21
2019-05-15T12:12:49.499Z,38.15
2019-05-15T12:15:19.146Z,35.99
2019-05-15T12:17:48.524Z,36.07
2019-05-15T12:20:19.292Z,35.50
2019-05-15T12:22:48.589Z,34.19
2019-05-15T12:25:17.467Z,36.78
2019-05-15T12:27:48.846Z,35.79
2019-05-15T12:30:19.658Z,33.86
2019-05-15T12:32:49.266Z,33.68
2019-05-15T12:35:20.456Z,33.09
2019-05-15T12:37:47.299Z,31.66
2019-05-15T13:00:19.801Z,32.96
2019-05-15T13:02:49.225Z,32.07
2019-05-15T13:05:19.234Z,31.44
2019-05-15T13:07:48.380Z,31.34
2019-05-15T13:10:18.614Z,32.27
2019-05-15T13:12:59.270Z,32.55
2019-05-15T13:15:18.974Z,33.08
2019-05-15T13:17:53.090Z,33.03
2019-05-15T13:20:18.483Z,33.26
2019-05-15T13:25:15.969Z,32.18
2019-05-15T13:27:44.459Z,32.05
2019-05-15T13:30:13.414Z,31.87
2019-05-15T13:32:41.895Z,33.23
2019-05-15T13:35:10.506Z,33.95
2019-05-15T13:37:39.242Z,31.07
2019-05-15T13:40:08.254Z,32.10
2019-05-15T13:42:38.893Z,31.71
2019-05-15T13:45:12.961Z,32.33
2019-05-15T13:47:39.757Z,31.94
2019-05-15T13:50:08.750Z,32.62
2019-05-15T13:52:39.378Z,33.28
2019-05-15T13:55:08.624Z,30.40
2019-05-15T13:57:38.331Z,31.42
2019-05-15T14:00:09.248Z,33.14
2019-05-15T14:02:38.642Z,32.09
2019-05-15T14:05:09.424Z,31.92
2019-05-15T14:07:48.932Z,32.00
2019-05-15T14:10:09.695Z,32.08
2019-05-15T14:12:38.520Z,31.50
2019-05-15T14:15:09.103Z,31.40
2019-05-15T14:17:37.788Z,31.84
2019-05-15T14:20:09.230Z,31.19
2019-05-15T14:22:38.930Z,30.35
2019-05-15T14:25:09.576Z,32.36
2019-05-15T14:27:39.785Z,32.84
2019-05-15T14:30:09.923Z,32.44
2019-05-15T14:32:39.383Z,31.70
2019-05-15T14:35:09.472Z,31.51
2019-05-15T14:37:37.935Z,32.40
2019-05-15T14:40:08.712Z,32.96
2019-05-15T14:42:39.587Z,32.40
2019-05-15T14:45:09.208Z,32.48
2019-05-15T14:47:38.857Z,32.18
2019-05-15T14:50:10.131Z,32.80
2019-05-15T14:52:38.772Z,31.60
2019-05-15T14:55:07.852Z,32.38
2019-05-15T14:57:39.157Z,32.11
2019-05-15T15:00:08.854Z,32.25
2019-05-15T15:02:38.907Z,32.62
2019-05-15T15:05:09.088Z,31.45
2019-05-15T15:07:38.445Z,31.99
2019-05-15T15:10:08.051Z,32.17
2019-05-15T15:12:39.698Z,33.32
2019-05-15T15:15:10.085Z,33.58
2019-05-15T15:17:38.906Z,33.25
2019-05-15T15:20:07.710Z,32.70
2019-05-15T15:22:36.179Z,32.61
2019-05-15T15:25:09.609Z,32.78
2019-05-15T15:27:38.733Z,32.90
2019-05-15T15:30:09.132Z,32.75
2019-05-15T15:32:38.334Z,33.29
2019-05-15T15:35:08.563Z,32.78
2019-05-15T15:37:38.307Z,32.30
2019-05-15T15:40:08.616Z,34.02
2019-05-15T15:42:39.569Z,34.41
2019-05-15T15:45:09.228Z,35.27
2019-05-15T15:47:38.938Z,34.32
2019-05-15T15:50:09.491Z,33.25
2019-05-15T15:52:38.772Z,33.23
2019-05-15T15:55:09.046Z,33.82
2019-05-15T15:57:39.701Z,34.69
2019-05-15T16:00:09.654Z,33.13
2019-05-15T16:02:41.144Z,35.04
2019-05-15T16:05:09.256Z,34.31
2019-05-15T16:07:38.158Z,34.65
2019-05-15T16:10:08.399Z,34.52
2019-05-15T16:12:38.699Z,34.27
2019-05-15T16:15:08.972Z,33.89
2019-05-15T16:17:38.624Z,33.64
2019-05-15T16:20:09.237Z,35.65
2019-05-15T16:22:38.347Z,36.27
2019-05-15T16:25:09.589Z,34.89
2019-05-15T16:27:38.630Z,35.13
2019-05-15T16:30:08.505Z,34.57
2019-05-15T16:32:38.867Z,34.06
2019-05-15T16:35:09.061Z,34.26
2019-05-15T16:37:38.756Z,35.93
2019-05-15T16:40:09.210Z,34.35
2019-05-15T16:42:38.491Z,34.69
2019-05-15T16:45:09.502Z,36.15
2019-05-15T16:47:38.755Z,34.71
2019-05-15T16:50:09.046Z,35.18
2019-05-15T16:52:38.827Z,34.43
2019-05-15T16:55:09.256Z,34.40
2019-05-15T16:57:38.758Z,34.45
2019-05-15T17:00:09.636Z,33.65
2019-05-15T17:02:39.507Z,34.42
2019-05-15T17:05:09.896Z,34.74
2019-05-15T17:07:39.023Z,33.13
2019-05-15T17:10:08.637Z,35.91
2019-05-15T17:12:38.664Z,33.15
2019-05-15T17:15:10.805Z,33.94
2019-05-15T17:17:40.130Z,34.53
2019-05-15T17:20:10.187Z,34.60
2019-05-15T17:22:38.964Z,34.29
2019-05-15T17:25:09.525Z,34.18
2019-05-15T17:27:38.160Z,35.07
2019-05-15T17:30:09.457Z,34.77
2019-05-15T17:32:39.719Z,34.58
2019-05-15T17:35:10.224Z,35.38
2019-05-15T17:37:38.836Z,35.05
2019-05-15T17:40:08.034Z,37.39
2019-05-15T17:42:38.808Z,34.72
2019-05-15T17:45:09.038Z,35.83
2019-05-15T17:47:38.782Z,36.27
2019-05-15T17:50:08.636Z,37.27
2019-05-15T17:52:38.685Z,36.79
2019-05-15T17:55:07.759Z,37.58
2019-05-15T17:57:38.710Z,35.88
2019-05-15T18:00:12.219Z,37.47
2019-05-15T18:02:38.874Z,38.23
2019-05-15T18:05:08.093Z,36.75
2019-05-15T18:07:38.833Z,38.05
2019-05-15T18:10:08.388Z,37.98
2019-05-15T18:12:38.953Z,36.95
2019-05-15T18:15:09.064Z,37.26
2019-05-15T18:17:39.233Z,38.81
2019-05-15T18:20:10.430Z,38.93
2019-05-15T18:22:38.920Z,39.68
2019-05-15T18:25:09.120Z,40.02
2019-05-15T18:27:38.864Z,40.03
2019-05-15T18:30:09.320Z,39.81
2019-05-15T18:32:39.086Z,40.48
2019-05-15T18:35:08.318Z,40.66
2019-05-15T18:37:39.439Z,40.97
2019-05-15T18:40:09.934Z,40.78
2019-05-15T18:42:39.298Z,41.40
2019-05-15T18:45:09.997Z,40.64
2019-05-15T18:47:39.123Z,42.07
2019-05-15T18:50:13.070Z,41.96
2019-05-15T18:52:39.726Z,42.16
2019-05-15T18:55:08.692Z,42.60
2019-05-15T18:57:38.497Z,42.76
2019-05-15T19:00:10.016Z,42.79
2019-05-15T19:02:39.345Z,43.08
2019-05-15T19:05:08.394Z,44.55
2019-05-15T19:07:38.418Z,43.82
2019-05-15T19:10:10.710Z,43.75
2019-05-15T19:12:39.286Z,43.65
2019-05-15T19:15:09.197Z,43.59
2019-05-15T19:17:38.843Z,44.18
2019-05-15T19:20:08.651Z,44.96
2019-05-15T19:22:40.667Z,44.98
2019-05-15T19:25:08.889Z,45.16
2019-05-15T19:27:39.017Z,45.32
2019-05-15T19:30:09.285Z,46.01
2019-05-15T19:32:38.785Z,45.71
2019-05-15T19:35:08.182Z,45.78
2019-05-15T19:37:38.375Z,46.91
2019-05-15T19:40:09.042Z,45.55
2019-05-15T19:42:38.338Z,46.42
2019-05-15T19:45:08.878Z,45.71
2019-05-15T19:47:38.818Z,45.42
2019-05-15T19:50:08.732Z,47.94
2019-05-15T19:52:37.335Z,48.91
2019-05-15T19:55:08.827Z,48.94
2019-05-15T19:57:38.930Z,48.78
2019-05-15T20:00:10.638Z,48.15
2019-05-15T20:02:38.442Z,48.37
2019-05-15T20:05:09.275Z,49.31
2019-05-15T20:07:38.985Z,49.68
2019-05-15T20:10:09.184Z,49.91
2019-05-15T20:12:39.084Z,50.27
2019-05-15T20:15:09.238Z,49.62
2019-05-15T20:17:38.654Z,50.02
2019-05-15T20:20:09.069Z,51.11
2019-05-15T20:22:40.175Z,52.02
2019-05-15T20:25:08.500Z,51.52
2019-05-15T20:27:39.196Z,51.87
2019-05-15T20:30:08.675Z,52.00
2019-05-15T20:32:38.600Z,50.46
2019-05-15T20:35:08.599Z,51.79
2019-05-15T20:37:39.137Z,53.10
2019-05-15T20:40:09.128Z,55.14
2019-05-15T20:42:38.566Z,53.70
2019-05-15T20:45:11.764Z,54.07
2019-05-15T20:47:38.979Z,55.37
2019-05-15T20:50:08.848Z,55.49
2019-05-15T20:52:39.361Z,55.97
2019-05-15T20:55:08.304Z,57.89
2019-05-15T20:57:40.117Z,58.52
2019-05-15T21:00:09.225Z,57.87
2019-05-15T21:02:38.126Z,57.92
2019-05-15T21:05:08.821Z,58.04
2019-05-15T21:07:40.067Z,58.38
2019-05-15T21:10:09.709Z,59.97
2019-05-15T21:12:41.162Z,60.43
2019-05-15T21:15:09.482Z,61.39
2019-05-15T21:17:39.425Z,61.84
2019-05-15T21:20:09.456Z,61.67
2019-05-15T21:22:40.306Z,61.39
2019-05-15T21:25:10.759Z,61.91
2019-05-15T21:27:42.451Z,63.02
2019-05-15T21:30:10.890Z,63.17
2019-05-15T21:32:39.353Z,63.37
2019-05-15T21:35:09.175Z,63.95
2019-05-15T21:37:38.926Z,63.82
2019-05-15T21:40:09.224Z,64.19
2019-05-15T21:42:38.829Z,64.08
2019-05-15T21:45:14.164Z,63.87
2019-05-15T21:47:38.957Z,64.91
2019-05-15T21:50:08.366Z,65.25
2019-05-15T21:52:39.177Z,65.86
2019-05-15T21:55:09.645Z,65.31
2019-05-15T21:57:40.448Z,65.71
2019-05-15T22:00:18.036Z,66.07
2019-05-15T22:02:49.316Z,66.13
2019-05-15T22:05:18.991Z,66.17
2019-05-15T22:07:50.914Z,66.16
2019-05-15T22:10:19.546Z,66.19
2019-05-15T22:12:48.466Z,65.56
2019-05-15T22:15:18.976Z,64.79
2019-05-15T22:17:49.378Z,63.99
2019-05-15T22:20:18.486Z,64.42
2019-05-15T22:22:50.335Z,63.51
2019-05-15T22:25:19.059Z,62.78
2019-05-15T22:27:48.663Z,63.44
2019-05-15T22:30:18.219Z,63.82
2019-05-15T22:32:49.510Z,63.94
2019-05-15T22:35:18.855Z,64.54
2019-05-15T22:37:49.175Z,64.92
2019-05-15T22:40:18.418Z,64.55
2019-05-15T22:42:48.603Z,65.07
2019-05-15T22:45:19.024Z,64.76
2019-05-15T22:47:48.363Z,65.71
2019-05-15T22:50:18.836Z,66.29
2019-05-15T22:52:49.394Z,66.08
2019-05-15T22:55:18.584Z,64.88
2019-05-15T22:57:48.081Z,66.20
2019-05-15T23:00:17.497Z,66.80
2019-05-15T23:02:48.559Z,65.70
2019-05-15T23:05:25.129Z,65.32
2019-05-15T23:07:48.219Z,64.32
2019-05-15T23:10:17.089Z,64.82
2019-05-15T23:12:45.598Z,65.58
2019-05-15T23:15:14.326Z,66.33
2019-05-15T23:17:42.753Z,66.28
2019-05-15T23:20:11.408Z,67.51
2019-05-15T23:22:39.924Z,68.20
2019-05-15T23:25:08.559Z,68.83
2019-05-15T23:27:38.212Z,69.15
2019-05-15T23:30:08.938Z,68.94
2019-05-15T23:32:39.158Z,69.26
2019-05-15T23:35:08.859Z,69.37
2019-05-15T23:37:39.216Z,70.13
2019-05-15T23:40:08.860Z,70.15
2019-05-15T23:42:39.097Z,70.02
2019-05-15T23:45:08.124Z,70.40
2019-05-15T23:47:38.367Z,69.57
2019-05-15T23:50:06.877Z,69.96
2019-05-15T23:52:35.369Z,70.48
2019-05-15T23:55:05.531Z,70.74
2019-05-15T23:57:33.941Z,70.73
